sensor_id;sensor_type;location;lat;lon;timestamp;temperature;humidity
12843;DHT22;35724;49.324;-123.118;2022-10-19T00:02:20;30.00;51.00
12843;DHT22;35724;49.324;-123.118;2022-10-19T00:12:27;29.20;51.90
12843;DHT22;35724;49.324;-123.118;2022-10-19T00:22:36;28.50;52.20
12843;DHT22;35724;49.324;-123.118;2022-10-19T00:32:44;28.20;52.80
12843;DHT22;35724;49.324;-123.118;2022-10-19T00:42:55;27.90;52.80
12843;DHT22;35724;49.324;-123.118;2022-10-19T00:53:02;27.30;56.50
12843;DHT22;35724;49.324;-123.118;2022-10-19T01:03:12;25.80;59.60
12843;DHT22;35724;49.324;-123.118;2022-10-19T01:13:29;25.20;62.20
12843;DHT22;35724;49.324;-123.118;2022-10-19T01:34:23;24.50;63.50
12843;DHT22;35724;49.324;-123.118;2022-10-19T01:44:37;24.20;64.50
12843;DHT22;35724;49.324;-123.118;2022-10-19T01:54:52;24.10;65.00
12843;DHT22;35724;49.324;-123.118;2022-10-19T02:05:02;24.20;64.50
12843;DHT22;35724;49.324;-123.118;2022-10-19T02:15:14;24.30;63.80
12843;DHT22;35724;49.324;-123.118;2022-10-19T02:25:23;24.30;64.90
12843;DHT22;35724;49.324;-123.118;2022-10-19T02:35:32;24.20;69.00
12843;DHT22;35724;49.324;-123.118;2022-10-19T02:45:47;24.20;69.00
12843;DHT22;35724;49.324;-123.118;2022-10-19T02:55:58;24.30;69.00
12843;DHT22;35724;49.324;-123.118;2022-10-19T03:06:06;24.30;67.70
12843;DHT22;35724;49.324;-123.118;2022-10-19T03:16:14;24.30;67.10
12843;DHT22;35724;49.324;-123.118;2022-10-19T03:26:21;24.40;66.80
12843;DHT22;35724;49.324;-123.118;2022-10-19T03:36:31;24.40;66.80
12843;DHT22;35724;49.324;-123.118;2022-10-19T03:46:39;24.40;66.80
12843;DHT22;35724;49.324;-123.118;2022-10-19T03:56:47;24.40;67.10
12843;DHT22;35724;49.324;-123.118;2022-10-19T04:06:54;24.40;66.30
12843;DHT22;35724;49.324;-123.118;2022-10-19T04:17:13;24.30;64.40
12843;DHT22;35724;49.324;-123.118;2022-10-19T04:27:24;24.30;64.00
12843;DHT22;35724;49.324;-123.118;2022-10-19T04:37:44;24.20;63.80
12843;DHT22;35724;49.324;-123.118;2022-10-19T04:48:16;24.20;63.50
12843;DHT22;35724;49.324;-123.118;2022-10-19T04:58:26;24.20;63.20
12843;DHT22;35724;49.324;-123.118;2022-10-19T05:08:33;24.20;63.10
12843;DHT22;35724;49.324;-123.118;2022-10-19T05:18:46;24.20;62.90
12843;DHT22;35724;49.324;-123.118;2022-10-19T05:28:56;24.30;62.70
12843;DHT22;35724;49.324;-123.118;2022-10-19T05:39:08;24.30;62.50
12843;DHT22;35724;49.324;-123.118;2022-10-19T05:49:19;24.30;62.10
12843;DHT22;35724;49.324;-123.118;2022-10-19T05:59:28;24.20;61.40
12843;DHT22;35724;49.324;-123.118;2022-10-19T06:09:39;24.20;61.20
12843;DHT22;35724;49.324;-123.118;2022-10-19T06:19:51;24.20;62.80
12843;DHT22;35724;49.324;-123.118;2022-10-19T06:29:59;24.30;64.00
12843;DHT22;35724;49.324;-123.118;2022-10-19T06:40:09;24.30;62.70
12843;DHT22;35724;49.324;-123.118;2022-10-19T06:50:17;24.30;62.60
12843;DHT22;35724;49.324;-123.118;2022-10-19T07:00:29;24.20;62.30
12843;DHT22;35724;49.324;-123.118;2022-10-19T07:10:36;24.10;61.90
12843;DHT22;35724;49.324;-123.118;2022-10-19T07:20:53;24.00;61.30
12843;DHT22;35724;49.324;-123.118;2022-10-19T07:31:10;24.00;61.20
12843;DHT22;35724;49.324;-123.118;2022-10-19T07:41:21;23.90;60.90
12843;DHT22;35724;49.324;-123.118;2022-10-19T07:51:28;23.90;60.90
12843;DHT22;35724;49.324;-123.118;2022-10-19T08:01:39;23.80;60.70
12843;DHT22;35724;49.324;-123.118;2022-10-19T08:12:08;23.80;60.60
12843;DHT22;35724;49.324;-123.118;2022-10-19T08:22:25;23.70;60.50
12843;DHT22;35724;49.324;-123.118;2022-10-19T08:43:50;23.60;60.60
12843;DHT22;35724;49.324;-123.118;2022-10-19T08:54:04;23.60;60.40
12843;DHT22;35724;49.324;-123.118;2022-10-19T09:04:22;23.60;60.40
12843;DHT22;35724;49.324;-123.118;2022-10-19T09:14:37;23.60;60.30
12843;DHT22;35724;49.324;-123.118;2022-10-19T09:24:50;23.60;60.20
12843;DHT22;35724;49.324;-123.118;2022-10-19T09:35:00;23.50;60.20
12843;DHT22;35724;49.324;-123.118;2022-10-19T09:45:31;23.50;60.40
12843;DHT22;35724;49.324;-123.118;2022-10-19T09:56:18;23.50;60.20
12843;DHT22;35724;49.324;-123.118;2022-10-19T10:06:30;23.50;60.10
12843;DHT22;35724;49.324;-123.118;2022-10-19T10:16:37;23.50;60.10
12843;DHT22;35724;49.324;-123.118;2022-10-19T10:26:47;23.50;59.90
12843;DHT22;35724;49.324;-123.118;2022-10-19T10:36:54;23.50;59.90
12843;DHT22;35724;49.324;-123.118;2022-10-19T10:58:38;23.40;59.80
12843;DHT22;35724;49.324;-123.118;2022-10-19T11:09:02;23.40;59.70
12843;DHT22;35724;49.324;-123.118;2022-10-19T11:19:18;23.40;59.60
12843;DHT22;35724;49.324;-123.118;2022-10-19T11:29:44;23.40;59.60
12843;DHT22;35724;49.324;-123.118;2022-10-19T11:40:04;23.40;59.60
12843;DHT22;35724;49.324;-123.118;2022-10-19T11:50:26;23.30;59.50
12843;DHT22;35724;49.324;-123.118;2022-10-19T12:00:39;23.30;59.40
12843;DHT22;35724;49.324;-123.118;2022-10-19T12:11:13;23.30;59.50
12843;DHT22;35724;49.324;-123.118;2022-10-19T12:21:32;23.30;59.50
12843;DHT22;35724;49.324;-123.118;2022-10-19T12:31:42;23.30;59.40
12843;DHT22;35724;49.324;-123.118;2022-10-19T12:42:20;23.30;59.30
12843;DHT22;35724;49.324;-123.118;2022-10-19T12:52:39;23.30;59.20
12843;DHT22;35724;49.324;-123.118;2022-10-19T13:02:47;23.30;59.30
12843;DHT22;35724;49.324;-123.118;2022-10-19T13:13:04;23.20;59.20
12843;DHT22;35724;49.324;-123.118;2022-10-19T13:23:36;23.20;59.20
12843;DHT22;35724;49.324;-123.118;2022-10-19T13:33:53;23.20;59.20
12843;DHT22;35724;49.324;-123.118;2022-10-19T13:44:04;23.20;59.30
12843;DHT22;35724;49.324;-123.118;2022-10-19T13:54:32;23.20;59.30
12843;DHT22;35724;49.324;-123.118;2022-10-19T14:04:55;23.20;59.20
12843;DHT22;35724;49.324;-123.118;2022-10-19T14:15:23;23.30;59.20
12843;DHT22;35724;49.324;-123.118;2022-10-19T14:25:32;23.20;59.10
12843;DHT22;35724;49.324;-123.118;2022-10-19T14:35:42;23.30;59.10
12843;DHT22;35724;49.324;-123.118;2022-10-19T14:46:12;23.50;58.90
12843;DHT22;35724;49.324;-123.118;2022-10-19T14:56:24;23.50;59.40
12843;DHT22;35724;49.324;-123.118;2022-10-19T15:06:35;23.60;59.80
12843;DHT22;35724;49.324;-123.118;2022-10-19T15:16:51;23.70;60.10
12843;DHT22;35724;49.324;-123.118;2022-10-19T15:27:08;23.70;60.20
12843;DHT22;35724;49.324;-123.118;2022-10-19T15:37:22;23.70;60.40
12843;DHT22;35724;49.324;-123.118;2022-10-19T15:47:34;23.50;59.50
12843;DHT22;35724;49.324;-123.118;2022-10-19T15:57:43;23.30;59.20
12843;DHT22;35724;49.324;-123.118;2022-10-19T16:07:50;23.10;58.60
12843;DHT22;35724;49.324;-123.118;2022-10-19T16:17:59;23.00;58.60
12843;DHT22;35724;49.324;-123.118;2022-10-19T16:28:06;22.90;58.50
12843;DHT22;35724;49.324;-123.118;2022-10-19T16:38:16;22.90;58.70
12843;DHT22;35724;49.324;-123.118;2022-10-19T16:48:23;22.90;58.80
12843;DHT22;35724;49.324;-123.118;2022-10-19T16:58:32;22.90;59.10
12843;DHT22;35724;49.324;-123.118;2022-10-19T17:08:40;22.60;60.70
12843;DHT22;35724;49.324;-123.118;2022-10-19T17:19:10;22.40;61.30
12843;DHT22;35724;49.324;-123.118;2022-10-19T17:29:18;22.40;60.70
12843;DHT22;35724;49.324;-123.118;2022-10-19T17:39:27;22.50;60.30
12843;DHT22;35724;49.324;-123.118;2022-10-19T17:49:35;22.20;61.00
12843;DHT22;35724;49.324;-123.118;2022-10-19T17:59:44;22.10;61.50
12843;DHT22;35724;49.324;-123.118;2022-10-19T18:09:56;22.00;61.50
12843;DHT22;35724;49.324;-123.118;2022-10-19T18:20:05;22.00;62.10
12843;DHT22;35724;49.324;-123.118;2022-10-19T18:30:12;21.90;62.90
12843;DHT22;35724;49.324;-123.118;2022-10-19T18:40:22;21.80;63.50
12843;DHT22;35724;49.324;-123.118;2022-10-19T18:50:29;21.70;65.20
12843;DHT22;35724;49.324;-123.118;2022-10-19T19:00:39;21.60;66.50
12843;DHT22;35724;49.324;-123.118;2022-10-19T19:10:50;21.50;66.80
12843;DHT22;35724;49.324;-123.118;2022-10-19T19:21:13;21.50;67.10
12843;DHT22;35724;49.324;-123.118;2022-10-19T19:31:23;21.50;67.00
12843;DHT22;35724;49.324;-123.118;2022-10-19T19:41:35;21.40;67.70
12843;DHT22;35724;49.324;-123.118;2022-10-19T19:51:48;21.30;68.70
12843;DHT22;35724;49.324;-123.118;2022-10-19T20:02:01;21.20;70.40
12843;DHT22;35724;49.324;-123.118;2022-10-19T20:12:12;21.30;71.30
12843;DHT22;35724;49.324;-123.118;2022-10-19T20:22:25;21.20;73.20
12843;DHT22;35724;49.324;-123.118;2022-10-19T20:32:36;21.00;75.10
12843;DHT22;35724;49.324;-123.118;2022-10-19T20:42:48;21.10;76.10
12843;DHT22;35724;49.324;-123.118;2022-10-19T20:53:01;21.10;76.40
12843;DHT22;35724;49.324;-123.118;2022-10-19T21:03:12;21.20;76.40
12843;DHT22;35724;49.324;-123.118;2022-10-19T21:13:28;21.30;77.40
12843;DHT22;35724;49.324;-123.118;2022-10-19T21:23:40;21.20;76.80
12843;DHT22;35724;49.324;-123.118;2022-10-19T21:33:49;21.20;77.00
12843;DHT22;35724;49.324;-123.118;2022-10-19T21:44:02;21.20;76.60
12843;DHT22;35724;49.324;-123.118;2022-10-19T21:54:13;21.20;76.30
12843;DHT22;35724;49.324;-123.118;2022-10-19T22:04:27;21.50;75.10
12843;DHT22;35724;49.324;-123.118;2022-10-19T22:14:41;21.60;74.10
12843;DHT22;35724;49.324;-123.118;2022-10-19T22:24:56;21.50;74.00
12843;DHT22;35724;49.324;-123.118;2022-10-19T22:35:10;21.50;73.90
12843;DHT22;35724;49.324;-123.118;2022-10-19T22:45:21;21.50;74.00
12843;DHT22;35724;49.324;-123.118;2022-10-19T22:55:28;21.50;74.10
12843;DHT22;35724;49.324;-123.118;2022-10-19T23:05:39;21.50;74.30
12843;DHT22;35724;49.324;-123.118;2022-10-19T23:15:46;21.30;75.60
12843;DHT22;35724;49.324;-123.118;2022-10-19T23:26:01;21.60;74.30
12843;DHT22;35724;49.324;-123.118;2022-10-19T23:36:12;21.50;74.20
12843;DHT22;35724;49.324;-123.118;2022-10-19T23:46:27;21.40;74.60
12843;DHT22;35724;49.324;-123.118;2022-10-19T23:56:38;21.80;72.80
